Melrose, New Mexico
Current Conditions -  °F | °C
As of 12:56 AM on Sunday 23 Nov 2014 (Local Time) from K4MR Reporting Station
Broken Clouds Broken Clouds  
Wind Chill: 51°   Ceiling: 18000
Heat Index: 51°   Visibility: 10mi
Dew Point: 18°   Wind: 15mph
Humidity: 27%   Direction: 240°WSW
Pressure: 29.68"   Gusts: 21mph
Location:  34.43°N, 103.63°W
Report Text: K4MR 230756Z AUTO 24013G18KT 10SM BKN180 BKN200 11/M08 A2968 RMK AO2 SLP010 T01071078
Loading
Personal Weather Stations






























Interactive Weather Map New forecast layout! Learn more

10-Day Weather Forecast

Advertisements
Track Severe Weather on mobile